Time;durP1;ratioP1;P1;durP2;ratioP2;P2;SDS_P1;SDS_P2;PMS_P1;PMS_P2;Temp;Humidity;BMP_temperature;BMP_pressure;BME280_temperature;BME280_humidity;BME280_pressure;Samples;Min_cycle;Max_cycle;Signal;HPM_P1;HPM_P2
2023/10/06 00:03:06;;;;;;;1.50;1.40;;;18.60;71.30;;;;;;5115986;28;20201;-69
2023/10/06 00:05:34;;;;;;;1.80;1.60;;;18.50;71.20;;;;;;5115175;28;20180;-68
2023/10/06 00:08:00;;;;;;;1.88;1.52;;;18.60;71.20;;;;;;5115686;28;20177;-69
2023/10/06 00:10:31;;;;;;;3.17;1.67;;;18.60;71.30;;;;;;5115597;28;20623;-70
2023/10/06 00:12:59;;;;;;;2.67;1.35;;;18.60;71.20;;;;;;5114945;28;20215;-70
2023/10/06 00:15:35;;;;;;;2.65;1.88;;;18.60;71.30;;;;;;5115380;28;20647;-71
2023/10/06 00:18:07;;;;;;;2.08;1.80;;;18.60;71.30;;;;;;5115501;28;20240;-70
2023/10/06 00:20:42;;;;;;;1.98;1.45;;;18.60;71.30;;;;;;5115775;28;20173;-70
2023/10/06 00:23:14;;;;;;;2.20;1.67;;;18.60;71.30;;;;;;5115338;28;20172;-71
2023/10/06 00:25:42;;;;;;;1.90;1.40;;;18.60;71.30;;;;;;5114515;28;20173;-70
2023/10/06 00:28:19;;;;;;;2.22;1.45;;;18.60;71.30;;;;;;5115296;28;20173;-69
2023/10/06 00:30:48;;;;;;;3.20;1.58;;;18.60;71.30;;;;;;5115333;28;20635;-69
2023/10/06 00:33:15;;;;;;;2.05;1.60;;;18.60;71.30;;;;;;5114250;28;20173;-70
2023/10/06 00:35:41;;;;;;;2.40;1.73;;;18.60;71.30;;;;;;5114960;28;20173;-70
2023/10/06 00:38:16;;;;;;;1.73;1.58;;;18.60;71.30;;;;;;5114879;28;20184;-71
2023/10/06 00:40:50;;;;;;;2.17;1.63;;;18.60;71.30;;;;;;5114590;28;20176;-70
2023/10/06 00:43:21;;;;;;;2.35;1.58;;;18.60;71.30;;;;;;5114857;28;20172;-70
2023/10/06 00:45:47;;;;;;;2.20;1.80;;;18.60;71.30;;;;;;5097658;28;20169;-70
2023/10/06 00:48:15;;;;;;;2.65;1.60;;;18.60;71.30;;;;;;5113857;28;20239;-69
2023/10/06 00:50:42;;;;;;;1.88;1.70;;;18.60;71.30;;;;;;5114916;28;20165;-68
2023/10/06 00:53:10;;;;;;;2.95;2.05;;;18.50;71.30;;;;;;5114763;28;20513;-68
2023/10/06 00:55:37;;;;;;;4.82;1.60;;;18.50;71.40;;;;;;5096326;28;20180;-70
2023/10/06 00:58:04;;;;;;;1.58;1.45;;;18.60;71.40;;;;;;5096491;28;20200;-70
2023/10/06 01:00:31;;;;;;;2.20;1.85;;;18.60;71.40;;;;;;5113955;28;20181;-70
2023/10/06 01:02:57;;;;;;;1.83;1.70;;;18.60;71.40;;;;;;5114678;28;20275;-69
2023/10/06 01:05:25;;;;;;;3.05;1.55;;;18.60;71.40;;;;;;5114867;28;20195;-69
2023/10/06 01:07:51;;;;;;;2.67;1.67;;;18.50;71.30;;;;;;5114151;28;20173;-69
2023/10/06 01:10:27;;;;;;;1.85;1.60;;;18.50;71.30;;;;;;5114429;28;20535;-71
2023/10/06 01:12:54;;;;;;;2.50;1.50;;;18.50;71.30;;;;;;5113605;28;20180;-71
2023/10/06 01:15:20;;;;;;;4.78;1.90;;;18.50;71.30;;;;;;5113584;28;20177;-71
2023/10/06 01:17:48;;;;;;;1.58;1.48;;;18.50;71.40;;;;;;5114405;28;20322;-70
2023/10/06 01:20:35;;;;;;;1.90;1.70;;;18.50;71.40;;;;;;5114350;28;20170;-70
2023/10/06 01:23:01;;;;;;;2.05;1.73;;;18.50;71.40;;;;;;5113597;28;20230;-71
2023/10/06 01:25:27;;;;;;;3.22;1.90;;;18.50;71.40;;;;;;5114121;28;20173;-70
2023/10/06 01:27:53;;;;;;;4.00;1.70;;;18.50;71.30;;;;;;5114382;28;20173;-69
2023/10/06 01:30:19;;;;;;;3.47;1.60;;;18.50;71.40;;;;;;5113249;28;20265;-70
2023/10/06 01:32:45;;;;;;;1.98;1.88;;;18.60;71.40;;;;;;5114084;28;20173;-70
2023/10/06 01:35:12;;;;;;;3.65;1.65;;;18.50;71.40;;;;;;5113734;28;20637;-71
2023/10/06 01:37:42;;;;;;;2.28;1.55;;;18.50;71.30;;;;;;5113248;28;20220;-70
2023/10/06 01:42:50;;;;;;;2.03;1.85;;;18.50;71.30;;;;;;5113275;28;20289;-70
2023/10/06 01:45:21;;;;;;;1.70;1.60;;;18.50;71.40;;;;;;5113849;28;20188;-70
2023/10/06 01:47:47;;;;;;;2.10;1.70;;;18.50;71.40;;;;;;5114020;28;20667;-69
2023/10/06 01:50:13;;;;;;;1.67;1.58;;;18.50;71.40;;;;;;5112885;28;20643;-68
2023/10/06 01:52:39;;;;;;;2.35;1.58;;;18.50;71.40;;;;;;5113821;28;20600;-68
2023/10/06 01:55:21;;;;;;;1.98;1.77;;;18.50;71.40;;;;;;5113487;28;20224;-70
2023/10/06 01:57:47;;;;;;;3.58;1.95;;;18.50;71.40;;;;;;5113142;28;20224;-70
2023/10/06 02:00:25;;;;;;;1.77;1.63;;;18.50;71.50;;;;;;5113468;28;20220;-71
2023/10/06 02:02:51;;;;;;;2.28;1.90;;;18.50;71.40;;;;;;5113603;28;20177;-70
2023/10/06 02:05:17;;;;;;;2.08;1.88;;;18.50;71.40;;;;;;5112537;28;20261;-70
2023/10/06 02:07:44;;;;;;;1.95;1.70;;;18.50;71.40;;;;;;5113255;28;20242;-70
2023/10/06 02:10:13;;;;;;;2.20;1.65;;;18.50;71.40;;;;;;5113373;28;20177;-69
2023/10/06 02:12:39;;;;;;;2.25;1.77;;;18.50;71.40;;;;;;5112737;28;20216;-70
2023/10/06 02:15:10;;;;;;;2.92;1.50;;;18.50;71.40;;;;;;5113323;28;20622;-70
2023/10/06 02:17:42;;;;;;;2.28;1.65;;;18.50;71.40;;;;;;5112853;28;20239;-70
2023/10/06 02:20:29;;;;;;;2.47;2.13;;;18.40;71.30;;;;;;5112962;28;20176;-70
2023/10/06 02:22:58;;;;;;;2.13;1.63;;;18.50;71.40;;;;;;5113213;28;20173;-71
2023/10/06 02:25:25;;;;;;;2.45;1.88;;;18.40;71.30;;;;;;5112428;28;20180;-70
2023/10/06 02:27:51;;;;;;;2.20;1.67;;;18.40;71.30;;;;;;5113704;28;20173;-69
2023/10/06 02:30:19;;;;;;;2.55;1.67;;;18.50;71.40;;;;;;5113075;28;20173;-69
2023/10/06 02:32:45;;;;;;;1.92;1.55;;;18.40;71.30;;;;;;5112497;28;20204;-69
2023/10/06 02:35:12;;;;;;;2.58;1.88;;;18.40;71.40;;;;;;5113041;28;20169;-71
2023/10/06 02:37:39;;;;;;;1.98;1.60;;;18.50;71.40;;;;;;5112956;28;20309;-72
2023/10/06 02:40:12;;;;;;;2.17;1.52;;;18.50;71.40;;;;;;5112206;28;20177;-71
2023/10/06 02:42:53;;;;;;;2.53;1.90;;;18.40;71.30;;;;;;5112944;28;20209;-70
2023/10/06 02:45:20;;;;;;;1.90;1.60;;;18.40;71.40;;;;;;5112693;28;20233;-70
2023/10/06 02:47:49;;;;;;;1.88;1.67;;;18.40;71.40;;;;;;5111914;28;20229;-69
2023/10/06 02:50:21;;;;;;;2.95;2.00;;;18.40;71.40;;;;;;5112681;28;20181;-70
2023/10/06 02:52:47;;;;;;;2.38;1.88;;;18.40;71.40;;;;;;5112638;28;20169;-69
2023/10/06 02:55:31;;;;;;;1.77;1.67;;;18.40;71.40;;;;;;5112506;28;20173;-70
2023/10/06 02:57:58;;;;;;;1.77;1.60;;;18.40;71.40;;;;;;5113094;28;20224;-71
2023/10/06 03:02:56;;;;;;;1.98;1.80;;;18.40;71.40;;;;;;5113043;28;20700;-70
2023/10/06 03:05:32;;;;;;;2.65;1.90;;;18.40;71.40;;;;;;5112575;28;20173;-70
2023/10/06 03:07:58;;;;;;;2.45;1.80;;;18.40;71.40;;;;;;5111866;28;20635;-70
2023/10/06 03:10:27;;;;;;;1.92;1.42;;;18.40;71.40;;;;;;5112609;28;20177;-71
2023/10/06 03:12:53;;;;;;;2.97;1.58;;;18.40;71.40;;;;;;5113088;28;20204;-70
2023/10/06 03:15:33;;;;;;;1.83;1.73;;;18.40;71.50;;;;;;5111814;28;20170;-71
2023/10/06 03:17:59;;;;;;;2.05;1.63;;;18.40;71.40;;;;;;5112371;28;20752;-71
2023/10/06 03:20:42;;;;;;;1.50;1.40;;;18.40;71.40;;;;;;5112421;28;20170;-71
2023/10/06 03:23:26;;;;;;;2.50;1.60;;;18.40;71.40;;;;;;5111865;28;20268;-70
2023/10/06 03:25:56;;;;;;;1.67;1.58;;;18.40;71.40;;;;;;5095323;28;20695;-70
2023/10/06 03:28:32;;;;;;;3.00;1.90;;;18.40;71.50;;;;;;5111644;28;20173;-69
2023/10/06 03:31:02;;;;;;;2.13;1.75;;;18.40;71.50;;;;;;5112362;28;20237;-70
2023/10/06 03:33:29;;;;;;;2.78;1.95;;;18.40;71.40;;;;;;5112326;28;20661;-69
2023/10/06 03:35:57;;;;;;;2.20;1.88;;;18.30;71.40;;;;;;5113449;28;20169;-70
2023/10/06 03:46:01;;;;;;;1.83;1.60;;;18.30;71.40;;;;;;5116166;28;20684;-69
2023/10/06 03:48:29;;;;;;;2.28;1.63;;;18.40;71.40;;;;;;5115837;28;20233;-69
2023/10/06 03:50:55;;;;;;;2.30;1.75;;;18.30;71.40;;;;;;5115588;28;20598;-69
2023/10/06 03:53:21;;;;;;;1.83;1.40;;;18.30;71.40;;;;;;5115967;28;20513;-70
2023/10/06 03:55:47;;;;;;;1.95;1.80;;;18.40;71.50;;;;;;5116041;28;20183;-71
2023/10/06 03:58:17;;;;;;;1.67;1.58;;;18.30;71.40;;;;;;5114837;28;20522;-72
2023/10/06 04:00:47;;;;;;;1.58;1.35;;;18.30;71.40;;;;;;5116146;28;20177;-71
2023/10/06 04:03:13;;;;;;;2.13;1.83;;;18.30;71.40;;;;;;5115144;28;20177;-72
2023/10/06 04:05:44;;;;;;;1.80;1.67;;;18.30;71.50;;;;;;5115799;28;20185;-70
2023/10/06 04:08:16;;;;;;;1.70;1.60;;;18.40;71.50;;;;;;5115521;28;20239;-71
2023/10/06 04:10:48;;;;;;;4.05;1.52;;;18.40;72.40;;;;;;5115036;28;20169;-72
2023/10/06 04:13:14;;;;;;;2.42;1.80;;;18.30;71.40;;;;;;5115418;28;20631;-72
2023/10/06 04:15:46;;;;;;;2.33;1.83;;;18.40;71.50;;;;;;5115448;28;20174;-71
2023/10/06 04:18:11;;;;;;;2.22;1.65;;;18.30;71.90;;;;;;5114706;28;20180;-71
2023/10/06 04:20:39;;;;;;;1.75;1.50;;;18.30;71.50;;;;;;5115444;28;20177;-71
2023/10/06 04:23:05;;;;;;;3.08;1.50;;;18.30;71.50;;;;;;5115217;28;20585;-71
2023/10/06 04:25:31;;;;;;;1.88;1.63;;;18.30;71.50;;;;;;5114843;28;20201;-71
2023/10/06 04:27:57;;;;;;;2.78;1.75;;;18.30;71.50;;;;;;5115455;28;20184;-70
2023/10/06 04:30:25;;;;;;;2.47;1.70;;;18.30;71.50;;;;;;5115252;28;20173;-69
2023/10/06 04:32:54;;;;;;;1.77;1.67;;;18.30;71.50;;;;;;5114774;28;20191;-71
2023/10/06 04:35:21;;;;;;;1.77;1.55;;;18.30;71.50;;;;;;5115482;28;20200;-73
2023/10/06 04:37:49;;;;;;;1.92;1.55;;;18.30;71.50;;;;;;5115056;28;20205;-73
2023/10/06 04:40:17;;;;;;;3.00;1.70;;;18.30;71.50;;;;;;5114348;28;20226;-72
2023/10/06 04:42:42;;;;;;;1.65;1.40;;;18.30;71.50;;;;;;5115047;28;20185;-72
2023/10/06 04:45:12;;;;;;;1.80;1.60;;;18.30;71.50;;;;;;5114831;28;20169;-71
2023/10/06 04:47:41;;;;;;;3.33;1.80;;;18.30;71.50;;;;;;5114096;28;20228;-70
2023/10/06 04:50:16;;;;;;;1.98;1.45;;;18.30;71.50;;;;;;5114679;28;20700;-70
2023/10/06 04:52:44;;;;;;;1.60;1.50;;;18.30;71.50;;;;;;5114499;28;20824;-70
2023/10/06 04:55:13;;;;;;;1.85;1.58;;;18.30;71.50;;;;;;5114722;28;20209;-72
2023/10/06 04:57:41;;;;;;;1.70;1.60;;;18.30;71.50;;;;;;5114832;28;20240;-72
2023/10/06 05:00:13;;;;;;;3.50;1.80;;;18.30;71.60;;;;;;5114031;28;20169;-72
2023/10/06 05:02:42;;;;;;;2.05;1.77;;;18.30;71.60;;;;;;5114767;28;20238;-72
2023/10/06 05:05:10;;;;;;;1.77;1.67;;;18.30;71.60;;;;;;5114409;28;20624;-71
2023/10/06 05:07:37;;;;;;;2.33;1.55;;;18.30;71.60;;;;;;5113582;28;20552;-73
2023/10/06 05:10:08;;;;;;;3.25;1.70;;;18.30;71.50;;;;;;5114401;28;20173;-73
2023/10/06 05:12:37;;;;;;;2.85;1.88;;;18.30;71.60;;;;;;5114525;28;20177;-71
2023/10/06 05:15:07;;;;;;;2.05;1.50;;;18.30;71.50;;;;;;5113602;28;20187;-71
2023/10/06 05:17:34;;;;;;;1.70;1.60;;;18.30;71.60;;;;;;5114462;28;20231;-70
2023/10/06 05:20:00;;;;;;;3.25;1.75;;;18.30;71.60;;;;;;5114238;28;20184;-71
2023/10/06 05:22:25;;;;;;;1.98;1.70;;;18.20;71.50;;;;;;5113552;28;20582;-71
2023/10/06 05:24:51;;;;;;;2.05;1.45;;;18.30;71.60;;;;;;5114533;28;20169;-71
2023/10/06 05:27:19;;;;;;;5.38;1.77;;;18.20;71.40;;;;;;5114162;28;20643;-71
2023/10/06 05:29:50;;;;;;;2.78;1.63;;;18.30;71.60;;;;;;5113360;28;20169;-70
2023/10/06 05:32:16;;;;;;;1.60;1.50;;;18.30;71.60;;;;;;5114024;28;20184;-70
2023/10/06 05:34:42;;;;;;;1.95;1.50;;;18.30;71.60;;;;;;5113330;28;20669;-70
2023/10/06 05:37:12;;;;;;;1.73;1.63;;;18.30;71.50;;;;;;5113727;28;20216;-71
2023/10/06 05:39:40;;;;;;;2.25;1.67;;;18.30;71.50;;;;;;5113899;28;20184;-71
2023/10/06 05:42:08;;;;;;;1.63;1.48;;;18.20;71.50;;;;;;5113151;28;20683;-73
2023/10/06 05:44:36;;;;;;;2.00;1.80;;;18.30;71.60;;;;;;5113855;28;20176;-70
2023/10/06 05:47:02;;;;;;;2.92;1.85;;;18.30;71.60;;;;;;5113617;28;20277;-70
2023/10/06 05:49:32;;;;;;;2.03;1.60;;;18.20;71.50;;;;;;5113002;28;20476;-69
2023/10/06 05:51:58;;;;;;;1.70;1.60;;;18.20;71.40;;;;;;5113749;28;20203;-69
2023/10/06 05:54:23;;;;;;;2.60;1.70;;;18.20;71.50;;;;;;5113335;28;20187;-68
2023/10/06 05:56:53;;;;;;;2.78;1.73;;;18.30;71.50;;;;;;5112778;28;20213;-70
2023/10/06 05:59:21;;;;;;;2.22;1.58;;;18.20;71.50;;;;;;5112771;28;20187;-71
2023/10/06 06:01:56;;;;;;;2.28;1.77;;;18.30;71.50;;;;;;5113773;28;20226;-71
2023/10/06 06:04:28;;;;;;;2.45;1.83;;;18.20;71.40;;;;;;5112449;28;20649;-71
2023/10/06 06:06:56;;;;;;;1.75;1.60;;;18.20;71.40;;;;;;5095904;28;20518;-70
2023/10/06 06:09:25;;;;;;;1.70;1.60;;;18.30;71.50;;;;;;5113023;28;20169;-71
2023/10/06 06:11:51;;;;;;;2.50;1.90;;;18.20;71.40;;;;;;5112873;28;20173;-71
2023/10/06 06:14:21;;;;;;;2.08;1.88;;;18.30;71.50;;;;;;5113067;28;20537;-72
2023/10/06 06:16:47;;;;;;;1.92;1.60;;;18.30;71.50;;;;;;5112644;28;20244;-72
2023/10/06 06:19:13;;;;;;;1.88;1.70;;;18.30;71.40;;;;;;5113070;28;20181;-72
2023/10/06 06:21:38;;;;;;;2.40;1.80;;;18.30;71.40;;;;;;5113201;28;20222;-71
2023/10/06 06:24:07;;;;;;;2.63;1.67;;;18.30;71.40;;;;;;5112218;28;20291;-72
2023/10/06 06:26:36;;;;;;;2.90;1.90;;;18.30;71.40;;;;;;5113314;28;20177;-71
2023/10/06 06:29:09;;;;;;;2.67;1.70;;;18.30;71.40;;;;;;5095188;28;20176;-70
2023/10/06 06:31:34;;;;;;;3.33;2.30;;;18.30;71.40;;;;;;5112448;28;20173;-70
2023/10/06 06:34:06;;;;;;;2.53;2.00;;;18.30;71.30;;;;;;5112754;28;20567;-71
2023/10/06 06:36:31;;;;;;;3.10;1.98;;;18.30;71.20;;;;;;5112697;28;20233;-71
2023/10/06 06:38:58;;;;;;;2.45;2.05;;;18.30;71.30;;;;;;5112496;28;20177;-71
2023/10/06 06:41:24;;;;;;;2.83;1.90;;;18.30;71.20;;;;;;5112751;28;20173;-72
2023/10/06 06:43:54;;;;;;;2.38;1.70;;;18.30;71.20;;;;;;5112878;28;20222;-71
2023/10/06 06:46:20;;;;;;;2.28;1.70;;;18.40;71.40;;;;;;5111724;28;20614;-69
2023/10/06 06:48:46;;;;;;;3.35;1.98;;;18.40;71.30;;;;;;5112811;28;20266;-69
2023/10/06 06:51:12;;;;;;;5.85;2.33;;;18.30;71.30;;;;;;5112830;28;20230;-70
2023/10/06 06:53:39;;;;;;;3.50;2.00;;;18.30;71.50;;;;;;5112295;28;20582;-69
2023/10/06 06:56:05;;;;;;;3.88;2.08;;;18.30;71.50;;;;;;5112361;28;20265;-72
2023/10/06 06:58:32;;;;;;;3.03;2.15;;;18.30;71.50;;;;;;5112740;28;20256;-69
2023/10/06 07:00:58;;;;;;;4.45;2.28;;;18.30;71.50;;;;;;5112052;28;20334;-68
2023/10/06 07:03:24;;;;;;;3.15;1.90;;;18.30;71.40;;;;;;5112630;28;20679;-72
2023/10/06 07:05:50;;;;;;;2.90;1.70;;;18.40;71.50;;;;;;5112825;28;20541;-70
2023/10/06 07:08:16;;;;;;;3.65;2.72;;;18.40;71.40;;;;;;5111997;28;20517;-70
2023/10/06 07:10:46;;;;;;;4.78;1.95;;;18.40;71.40;;;;;;5114269;28;20221;-70
2023/10/06 07:13:12;;;;;;;3.72;2.33;;;18.40;71.50;;;;;;5115711;28;20700;-69
2023/10/06 07:15:37;;;;;;;2.90;2.00;;;18.40;71.40;;;;;;5116797;28;20264;-69
2023/10/06 07:18:03;;;;;;;3.45;2.20;;;18.50;71.50;;;;;;5116451;28;20575;-68
2023/10/06 07:20:30;;;;;;;2.80;2.22;;;18.40;71.40;;;;;;5115926;28;20302;-69
2023/10/06 07:22:56;;;;;;;3.00;2.00;;;18.50;71.50;;;;;;5117080;28;20177;-69
2023/10/06 07:25:26;;;;;;;3.10;2.00;;;18.50;71.60;;;;;;5116401;28;20169;-68
2023/10/06 07:27:57;;;;;;;4.07;1.75;;;18.50;71.60;;;;;;5116179;28;20188;-70
2023/10/06 07:30:34;;;;;;;2.35;2.08;;;18.50;71.50;;;;;;5116221;28;20173;-70
2023/10/06 07:33:00;;;;;;;3.15;1.92;;;18.50;71.40;;;;;;5116303;28;20576;-70
2023/10/06 07:35:43;;;;;;;3.13;1.95;;;18.50;71.40;;;;;;5115834;28;20204;-71
2023/10/06 07:38:10;;;;;;;3.72;2.22;;;18.50;71.20;;;;;;5115867;28;20697;-68
2023/10/06 07:40:36;;;;;;;2.35;1.55;;;18.60;71.00;;;;;;5116180;28;20203;-70
2023/10/06 07:43:05;;;;;;;3.53;1.98;;;18.60;71.00;;;;;;5115386;28;20177;-69
2023/10/06 07:45:31;;;;;;;2.03;1.67;;;18.70;71.10;;;;;;5116349;28;20252;-70
2023/10/06 07:47:57;;;;;;;5.05;2.35;;;18.70;70.90;;;;;;5116077;28;20236;-68
2023/10/06 07:50:26;;;;;;;2.25;1.95;;;18.80;70.70;;;;;;5115456;28;20687;-68
2023/10/06 07:52:52;;;;;;;4.25;2.25;;;18.80;70.50;;;;;;5116197;28;20234;-68
2023/10/06 07:55:21;;;;;;;2.33;2.10;;;18.80;70.40;;;;;;5115061;28;20173;-68
2023/10/06 07:57:48;;;;;;;3.35;2.00;;;18.70;70.40;;;;;;5115915;28;20201;-68
2023/10/06 08:00:30;;;;;;;3.10;2.00;;;18.80;70.40;;;;;;5115941;28;20169;-71
2023/10/06 08:02:57;;;;;;;4.95;2.58;;;18.80;70.30;;;;;;5115239;28;20248;-68
2023/10/06 08:05:23;;;;;;;5.47;3.28;;;18.80;69.90;;;;;;5115618;28;20169;-68
2023/10/06 08:07:48;;;;;;;4.00;2.42;;;18.80;69.40;;;;;;5115873;28;20556;-69
2023/10/06 08:10:15;;;;;;;5.60;2.60;;;18.80;69.30;;;;;;5114892;28;20526;-70
2023/10/06 08:12:43;;;;;;;3.85;2.70;;;18.90;69.30;;;;;;5115928;28;20241;-70
2023/10/06 08:15:09;;;;;;;4.50;2.80;;;18.90;69.30;;;;;;5115551;28;20177;-67
2023/10/06 08:17:38;;;;;;;4.20;2.45;;;18.90;69.30;;;;;;5114701;28;20209;-69
2023/10/06 08:20:09;;;;;;;2.78;2.25;;;18.90;69.40;;;;;;5115354;28;20522;-68
2023/10/06 08:22:34;;;;;;;2.60;2.22;;;18.90;69.50;;;;;;5114896;28;20177;-68
2023/10/06 08:25:05;;;;;;;2.50;2.17;;;18.90;69.70;;;;;;5114825;28;20172;-68
2023/10/06 08:27:32;;;;;;;5.03;2.65;;;18.90;69.60;;;;;;5115423;28;20181;-73
2023/10/06 08:29:57;;;;;;;4.65;2.88;;;18.90;69.30;;;;;;5115232;28;20184;-74
2023/10/06 08:32:24;;;;;;;6.20;2.67;;;19.00;69.80;;;;;;5114479;28;20177;-71
2023/10/06 08:34:49;;;;;;;5.72;2.55;;;19.00;69.40;;;;;;5115320;28;20177;-71
2023/10/06 08:37:15;;;;;;;8.80;2.65;;;19.10;69.40;;;;;;5114748;28;20261;-70
2023/10/06 08:39:41;;;;;;;8.48;2.75;;;19.00;69.40;;;;;;5114355;28;20187;-72
2023/10/06 08:42:09;;;;;;;5.07;2.42;;;19.10;69.40;;;;;;5114808;28;20256;-72
2023/10/06 08:44:41;;;;;;;5.40;2.70;;;19.20;69.30;;;;;;5096887;28;20177;-71
2023/10/06 08:47:11;;;;;;;5.40;2.80;;;19.10;69.60;;;;;;5097619;28;20236;-71
2023/10/06 08:49:38;;;;;;;9.75;2.80;;;19.10;69.60;;;;;;5114927;28;20173;-68
2023/10/06 08:52:04;;;;;;;8.68;2.88;;;19.00;69.20;;;;;;5114156;28;20658;-68
2023/10/06 08:54:30;;;;;;;4.30;2.30;;;19.00;69.50;;;;;;5096699;28;20177;-68
2023/10/06 08:56:56;;;;;;;5.38;2.63;;;19.00;69.60;;;;;;5096698;28;20209;-69
2023/10/06 08:59:21;;;;;;;6.82;2.70;;;19.00;69.60;;;;;;5113877;28;20183;-68
2023/10/06 09:01:47;;;;;;;5.78;2.60;;;19.10;69.70;;;;;;5096672;28;20651;-68
2023/10/06 09:04:12;;;;;;;6.65;2.47;;;19.10;69.70;;;;;;5114525;28;20305;-68
2023/10/06 09:07:11;;;;;;;5.95;2.80;;;19.10;69.60;;;;;;5095735;28;20529;-68
2023/10/06 09:09:37;;;;;;;7.55;2.33;;;19.10;69.70;;;;;;5114553;28;20177;-68
2023/10/06 09:12:03;;;;;;;4.45;2.40;;;19.10;69.70;;;;;;5114451;28;20180;-68
2023/10/06 09:14:30;;;;;;;5.38;2.47;;;19.10;69.80;;;;;;5113581;28;20658;-68
2023/10/06 09:17:01;;;;;;;4.32;2.20;;;19.10;69.90;;;;;;5114475;28;20212;-68
2023/10/06 09:19:44;;;;;;;4.45;2.53;;;19.10;69.90;;;;;;5114480;28;20180;-67
2023/10/06 09:22:16;;;;;;;4.90;2.60;;;19.10;69.90;;;;;;5096390;28;20280;-68
2023/10/06 09:24:42;;;;;;;5.70;2.47;;;19.10;70.10;;;;;;5114378;28;20181;-68
2023/10/06 09:27:21;;;;;;;4.32;2.58;;;19.20;70.00;;;;;;5095057;28;20234;-68
2023/10/06 09:29:47;;;;;;;2.80;2.15;;;19.20;69.90;;;;;;5114292;28;20661;-68
2023/10/06 09:32:21;;;;;;;3.58;2.13;;;19.20;69.90;;;;;;5095578;28;20177;-68
2023/10/06 09:34:53;;;;;;;6.05;2.35;;;19.20;70.00;;;;;;5113018;28;20197;-71
2023/10/06 09:37:21;;;;;;;3.78;2.20;;;19.20;70.00;;;;;;5096574;28;20208;-68
2023/10/06 09:40:15;;;;;;;4.47;2.20;;;19.10;70.10;;;;;;5114048;28;20745;-68
2023/10/06 09:42:41;;;;;;;2.90;1.95;;;19.10;70.10;;;;;;5113213;28;20177;-68
2023/10/06 09:45:08;;;;;;;3.85;2.58;;;19.10;70.20;;;;;;5095868;28;20184;-68
2023/10/06 09:47:35;;;;;;;4.32;2.22;;;19.10;70.30;;;;;;5113692;28;20229;-69
2023/10/06 09:50:01;;;;;;;4.50;2.25;;;19.10;70.40;;;;;;5112895;28;20177;-68
2023/10/06 09:52:28;;;;;;;3.10;2.15;;;19.10;70.40;;;;;;5095524;28;20177;-69
2023/10/06 09:54:55;;;;;;;3.40;1.77;;;19.00;70.40;;;;;;5095120;28;20619;-69
2023/10/06 09:57:20;;;;;;;4.32;2.65;;;19.00;70.40;;;;;;5113526;28;20298;-72
2023/10/06 09:59:46;;;;;;;3.40;2.35;;;19.10;70.40;;;;;;5095536;28;20608;-70
2023/10/06 10:02:12;;;;;;;3.78;2.58;;;19.10;70.40;;;;;;5094396;28;20594;-69
2023/10/06 10:04:38;;;;;;;3.63;2.40;;;19.10;70.40;;;;;;5095325;28;20534;-69
2023/10/06 10:07:03;;;;;;;3.47;2.00;;;19.00;70.40;;;;;;5095539;28;20180;-68
2023/10/06 10:09:29;;;;;;;3.67;2.30;;;19.10;70.50;;;;;;5094713;28;20169;-69
2023/10/06 10:12:07;;;;;;;3.67;2.08;;;19.10;70.40;;;;;;5095324;28;20184;-68
2023/10/06 10:14:39;;;;;;;3.35;1.95;;;19.10;70.40;;;;;;5095689;28;20631;-68
2023/10/06 10:17:18;;;;;;;4.15;2.05;;;19.10;70.30;;;;;;5112402;28;20664;-68
2023/10/06 10:19:45;;;;;;;5.65;2.33;;;19.20;70.30;;;;;;5113559;28;20180;-68
2023/10/06 10:22:16;;;;;;;4.60;1.98;;;19.20;70.10;;;;;;5095106;28;20181;-68
2023/10/06 10:24:43;;;;;;;2.88;2.10;;;19.30;70.00;;;;;;5094869;28;20238;-68
2023/10/06 10:27:12;;;;;;;3.25;2.20;;;19.30;70.00;;;;;;5112991;28;20185;-67
2023/10/06 10:29:40;;;;;;;2.25;2.05;;;19.30;69.80;;;;;;5113073;28;20222;-68
2023/10/06 10:32:26;;;;;;;2.50;1.83;;;19.30;70.00;;;;;;5112231;28;20180;-68
2023/10/06 10:35:18;;;;;;;4.80;2.30;;;19.40;70.00;;;;;;5094580;28;20172;-69
2023/10/06 10:38:02;;;;;;;4.50;2.38;;;19.40;70.00;;;;;;5112318;28;20208;-69
2023/10/06 10:40:28;;;;;;;2.75;1.70;;;19.30;70.00;;;;;;5113102;28;20184;-68
2023/10/06 10:43:05;;;;;;;3.85;1.98;;;19.40;70.00;;;;;;5112984;28;20696;-68
2023/10/06 10:45:35;;;;;;;2.58;2.05;;;19.40;69.90;;;;;;5112116;28;20217;-68
2023/10/06 10:48:13;;;;;;;2.80;2.08;;;19.50;69.80;;;;;;5112560;28;20229;-68
2023/10/06 10:51:05;;;;;;;3.05;1.88;;;19.50;69.70;;;;;;5112942;28;20168;-68
2023/10/06 10:53:32;;;;;;;2.22;2.00;;;19.50;69.60;;;;;;5112794;28;20634;-68
2023/10/06 10:55:57;;;;;;;3.10;2.10;;;19.50;69.60;;;;;;5094767;28;20201;-68
2023/10/06 10:58:45;;;;;;;1.70;1.48;;;19.50;69.80;;;;;;5112148;28;20288;-68
2023/10/06 11:01:23;;;;;;;2.28;1.60;;;19.40;69.90;;;;;;5112841;28;20574;-68
2023/10/06 11:04:14;;;;;;;5.00;2.03;;;19.40;70.10;;;;;;5112936;28;20627;-68
2023/10/06 11:06:40;;;;;;;3.00;1.88;;;19.30;70.10;;;;;;5111965;28;20226;-68
2023/10/06 11:09:25;;;;;;;3.78;2.30;;;19.30;70.20;;;;;;5094487;28;20173;-68
2023/10/06 11:11:55;;;;;;;2.58;1.92;;;19.30;70.20;;;;;;5112562;28;20261;-68
2023/10/06 11:14:25;;;;;;;3.53;1.45;;;19.30;70.30;;;;;;5111984;28;20177;-67
2023/10/06 11:16:50;;;;;;;2.92;1.70;;;19.30;70.30;;;;;;5112822;28;20212;-68
2023/10/06 11:19:16;;;;;;;2.22;1.65;;;19.30;70.30;;;;;;5111587;28;20165;-69
2023/10/06 11:21:53;;;;;;;2.58;1.98;;;19.30;70.30;;;;;;5112589;28;20208;-69
2023/10/06 11:24:28;;;;;;;3.55;1.98;;;19.20;70.20;;;;;;5112429;28;20571;-69
2023/10/06 11:26:54;;;;;;;2.30;1.98;;;19.20;70.20;;;;;;5112121;28;20180;-69
2023/10/06 11:29:30;;;;;;;3.67;1.90;;;19.30;70.10;;;;;;5112518;28;20531;-69
2023/10/06 11:31:57;;;;;;;2.45;1.70;;;19.40;70.10;;;;;;5112526;28;20515;-69
2023/10/06 11:34:24;;;;;;;2.13;1.92;;;19.50;69.70;;;;;;5093723;28;20223;-69
2023/10/06 11:36:56;;;;;;;3.67;1.92;;;19.50;69.50;;;;;;5094693;28;20664;-70
2023/10/06 11:39:23;;;;;;;2.22;2.00;;;19.50;69.60;;;;;;5094389;28;20179;-69
2023/10/06 11:41:50;;;;;;;2.28;1.65;;;19.50;69.60;;;;;;5111904;28;20707;-69
2023/10/06 11:44:16;;;;;;;2.17;1.88;;;19.50;69.70;;;;;;5094171;28;20238;-69
2023/10/06 11:46:52;;;;;;;2.45;1.90;;;19.50;69.70;;;;;;5094069;28;20253;-69
2023/10/06 11:49:20;;;;;;;3.95;1.83;;;19.50;69.60;;;;;;5111728;28;20185;-69
2023/10/06 11:51:46;;;;;;;2.85;2.20;;;19.50;69.60;;;;;;5112512;28;20589;-69
2023/10/06 11:54:11;;;;;;;2.53;1.60;;;19.50;69.60;;;;;;5112315;28;20310;-69
2023/10/06 11:56:50;;;;;;;3.40;2.08;;;19.50;69.70;;;;;;5112670;28;20208;-69
2023/10/06 11:59:22;;;;;;;2.63;1.50;;;19.50;69.70;;;;;;5115616;28;20180;-69
2023/10/06 12:01:48;;;;;;;2.40;1.55;;;19.50;69.70;;;;;;5115306;28;20650;-69
2023/10/06 12:04:30;;;;;;;2.33;2.13;;;19.50;69.60;;;;;;5116006;28;20538;-69
2023/10/06 12:06:56;;;;;;;3.60;2.03;;;19.50;69.60;;;;;;5116145;28;20184;-69
2023/10/06 12:09:26;;;;;;;2.95;1.80;;;19.50;69.60;;;;;;5114816;28;20200;-69
2023/10/06 12:11:55;;;;;;;3.53;1.88;;;19.50;69.60;;;;;;5115646;28;20218;-69
2023/10/06 12:14:20;;;;;;;1.95;1.73;;;19.50;69.60;;;;;;5115658;28;20173;-69
2023/10/06 12:16:46;;;;;;;3.60;2.15;;;19.50;69.60;;;;;;5114918;28;20292;-69
2023/10/06 12:19:12;;;;;;;3.22;1.73;;;19.50;69.60;;;;;;5115481;28;20234;-68
2023/10/06 12:21:37;;;;;;;3.03;2.10;;;19.50;69.60;;;;;;5115582;28;20177;-69
2023/10/06 12:24:03;;;;;;;2.08;1.85;;;19.50;69.70;;;;;;5114678;28;20177;-68
2023/10/06 12:26:29;;;;;;;2.00;1.73;;;19.50;69.70;;;;;;5115293;28;20256;-69
2023/10/06 12:28:54;;;;;;;2.78;2.15;;;19.50;69.70;;;;;;5115615;28;20177;-69
2023/10/06 12:31:20;;;;;;;2.03;1.83;;;19.50;69.70;;;;;;5114631;28;20545;-69
2023/10/06 12:33:45;;;;;;;1.88;1.70;;;19.50;69.70;;;;;;5115485;28;20605;-69
2023/10/06 12:36:12;;;;;;;4.13;2.10;;;19.50;69.70;;;;;;5114975;28;20165;-69
2023/10/06 12:38:39;;;;;;;2.58;1.80;;;19.50;69.70;;;;;;5114521;28;20181;-68
2023/10/06 12:41:06;;;;;;;1.70;1.60;;;19.50;69.70;;;;;;5114882;28;20580;-68
2023/10/06 12:43:35;;;;;;;3.72;1.98;;;19.50;69.80;;;;;;5114966;28;20180;-68
2023/10/06 12:46:04;;;;;;;3.20;1.90;;;19.50;69.70;;;;;;5114935;28;20647;-67
2023/10/06 12:48:31;;;;;;;2.53;1.85;;;19.50;69.80;;;;;;5114784;28;20225;-68
2023/10/06 12:51:00;;;;;;;3.22;1.70;;;19.50;69.90;;;;;;5114222;28;20231;-68
2023/10/06 12:53:26;;;;;;;3.13;2.00;;;19.50;69.80;;;;;;5114721;28;20192;-69
2023/10/06 12:55:56;;;;;;;2.72;1.95;;;19.50;69.80;;;;;;5115204;28;20188;-69
2023/10/06 12:58:22;;;;;;;2.05;1.73;;;19.50;69.90;;;;;;5096424;28;20213;-70
2023/10/06 13:00:48;;;;;;;2.13;1.85;;;19.50;69.80;;;;;;5115041;28;20169;-69
2023/10/06 13:03:16;;;;;;;3.13;2.03;;;19.50;69.90;;;;;;5114652;28;20183;-69
2023/10/06 13:05:45;;;;;;;2.20;1.55;;;19.50;70.00;;;;;;5113980;28;20218;-69
2023/10/06 13:08:16;;;;;;;2.22;1.92;;;19.40;70.00;;;;;;5114289;28;20173;-68
2023/10/06 13:10:46;;;;;;;2.70;1.70;;;19.50;70.00;;;;;;5114805;28;20262;-69
2023/10/06 13:13:12;;;;;;;2.25;1.70;;;19.40;70.00;;;;;;5113501;28;20576;-69